Flight Track Log - Related Links

Times and Time Zones

All times are in EST time to prevent confusion due to time zone crossing. See the FDX3003 flight status page for this flight to view local times or setup timezone preferences in your user account.


Time Position Orientation Groundspeed Altitude Reporting Facility
EST Latitude Longitude Course Direction KTS MPH feet Rate Location/Type
Wed 09:07:23 AM 32.8500 -97.0333 180° South 144 166 3,800  Level
Wed 09:08:11 AM 32.8167 -97.0333 148° Southeast 186 214 4,700 1,611 Climbing
Wed 09:09:11 AM 32.7500 -96.9833 79° East 280 322 6,700 2,281 Climbing
Wed 09:10:12 AM 32.7667 -96.8833 59° Northeast 318 366 9,300 2,250 Climbing
Wed 09:10:39 AM 32.7833 -96.8500 63° Northeast 333 383 10,000 1,103 Climbing
Wed 09:11:39 AM 32.8333 -96.7333 68° East 370 426 10,900 1,600 Climbing
Wed 09:12:39 AM 32.8833 -96.5833 68° East 425 489 13,200 2,350 Climbing
Wed 09:13:39 AM 32.9333 -96.4333 68° East 461 531 15,600 2,400 Climbing
Wed 09:14:39 AM 32.9833 -96.2833 77° East 485 558 18,000 2,380 Climbing
Wed 09:15:40 AM 33.0167 -96.1167 70° East 506 582 20,400 2,300 Climbing
Wed 09:16:39 AM 33.0667 -95.9500 64° Northeast 518 596 22,600 2,067 Climbing
Wed 09:17:39 AM 33.1333 -95.7833 64° Northeast 539 620 24,500 2,200 Climbing
Wed 09:18:39 AM 33.2000 -95.6167 64° Northeast 544 626 27,000 2,200 Climbing
Wed 09:19:39 AM 33.2667 -95.4500 72° East 539 620 28,900 1,850 Climbing
Wed 09:20:39 AM 33.3167 -95.2667 64° Northeast 545 627 30,700 1,950 Climbing
Wed 09:21:39 AM 33.3833 -95.1000 70° East 545 627 32,800 1,700 Climbing
Wed 09:22:39 AM 33.4333 -94.9333 64° Northeast 539 620 34,100 1,100 Climbing
Wed 09:23:39 AM 33.5000 -94.7667 70° East 539 620 35,000 450 Climbing
Wed 09:24:39 AM 33.5500 -94.6000 68° East 546 628 35,000  Level
Wed 09:25:30 AM 33.6000 -94.4500 59° Northeast 555 639 35,000  Level
Wed 09:25:39 AM 33.6167 -94.4167 68° East 556 640 35,000  Level
Wed 09:26:30 AM 33.6667 -94.2667 59° Northeast 568 654 35,000  Level
Wed 09:26:39 AM 33.6833 -94.2333 66° East 568 654 35,000  Level
Wed 09:27:30 AM 33.7333 -94.1000 43° Northeast 577 664 35,000  Level
Wed 09:28:30 AM 33.8500 -93.9667 43° Northeast 571 657 35,000  Level
Wed 09:29:30 AM 33.9667 -93.8333 48° Northeast 560 644 35,000  Level
Wed 09:30:30 AM 34.0667 -93.7000 51° Northeast 560 644 35,000  Level
Wed 09:31:30 AM 34.1667 -93.5500 48° Northeast 560 644 35,000  Level
Wed 09:32:30 AM 34.2667 -93.4167 51° Northeast 555 639 35,000  Level
Wed 09:33:30 AM 34.3667 -93.2667 51° Northeast 555 639 35,000  Level
Wed 09:34:30 AM 34.4667 -93.1167 48° Northeast 555 639 35,000  Level
Wed 09:35:30 AM 34.5667 -92.9833 51° Northeast 560 644 35,000  Level
Wed 09:36:30 AM 34.6667 -92.8333 48° Northeast 560 644 35,000  Level
Wed 09:37:30 AM 34.7667 -92.7000 51° Northeast 560 644 35,000  Level
Wed 09:38:30 AM 34.8667 -92.5500 51° Northeast 554 638 35,000  Level
Wed 09:39:30 AM 34.9667 -92.4000 47° Northeast 554 638 35,000  Level
Wed 09:40:30 AM 35.0667 -92.2667 51° Northeast 554 638 35,000  Level
Wed 09:41:30 AM 35.1667 -92.1167 53° Northeast 554 638 35,000  Level
Wed 09:42:30 AM 35.2500 -91.9833 51° Northeast 549 632 35,000  Level
Wed 09:43:30 AM 35.3500 -91.8333 51° Northeast 544 626 35,000  Level
Wed 09:44:30 AM 35.4500 -91.6833 47° Northeast 550 633 35,000  Level
Wed 09:45:30 AM 35.5500 -91.5500 56° Northeast 550 633 35,000  Level
Wed 09:46:30 AM 35.6333 -91.4000 51° Northeast 550 633 35,000  Level
Wed 09:47:30 AM 35.7333 -91.2500 56° Northeast 544 626 35,000  Level
Wed 09:48:30 AM 35.8167 -91.1000 47° Northeast 534 615 35,000  Level
Wed 09:49:30 AM 35.9167 -90.9667 50° Northeast 540 621 35,000  Level
Wed 09:50:30 AM 36.0167 -90.8167 50° Northeast 540 621 35,000  Level
Wed 09:51:30 AM 36.1167 -90.6667 50° Northeast 545 627 35,000  Level
Wed 09:52:30 AM 36.2167 -90.5167 50° Northeast 545 627 35,000  Level
Wed 09:53:30 AM 36.3167 -90.3667 52° Northeast 545 627 35,000  Level
Wed 09:54:30 AM 36.4000 -90.2333 50° Northeast 545 627 35,000  Level
Wed 09:55:30 AM 36.5000 -90.0833 50° Northeast 545 627 35,000  Level
Wed 09:56:30 AM 36.6000 -89.9333 55° Northeast 550 633 35,000  Level
Wed 09:57:30 AM 36.6833 -89.7833 50° Northeast 550 633 35,000  Level
Wed 09:58:30 AM 36.7833 -89.6333 50° Northeast 550 633 35,000  Level
Wed 09:59:30 AM 36.8833 -89.4833 55° Northeast 550 633 35,000  Level
Wed 10:00:30 AM 36.9667 -89.3333 50° Northeast 550 633 35,000  Level
Wed 10:01:30 AM 37.0667 -89.1833 50° Northeast 550 633 35,000  Level
Wed 10:02:30 AM 37.1667 -89.0333 55° Northeast 550 633 35,000  Level
Wed 10:03:30 AM 37.2500 -88.8833 50° Northeast 544 626 35,000  Level
Wed 10:04:30 AM 37.3500 -88.7333 50° Northeast 544 626 35,000  Level
Wed 10:05:30 AM 37.4500 -88.5833 54° Northeast 549 632 35,000  Level
Wed 10:08:51 AM 37.7500 -88.0667 50° Northeast 575 662 35,000  Level
Wed 10:09:51 AM 37.8500 -87.9167 58° Northeast 558 642 35,000  Level
Wed 10:10:51 AM 37.9333 -87.7500 50° Northeast 552 635 35,000  Level
Wed 10:11:51 AM 38.0333 -87.6000 50° Northeast 552 635 35,000  Level
Wed 10:12:51 AM 38.1333 -87.4500 50° Northeast 552 635 35,000  Level
Wed 10:13:51 AM 38.2333 -87.3000 55° Northeast 552 635 35,000  Level
Wed 10:14:51 AM 38.3167 -87.1500 53° Northeast 552 635 35,000  Level
Wed 10:15:51 AM 38.4167 -86.9833 50° Northeast 557 641 35,000  Level
Wed 10:16:51 AM 38.5167 -86.8333 50° Northeast 563 648 35,000  Level
Wed 10:17:51 AM 38.6167 -86.6833 49° Northeast 563 648 35,000  Level
Wed 10:18:51 AM 38.7167 -86.5333 57° Northeast 550 633 35,000  Level
Wed 10:19:51 AM 38.8000 -86.3667 49° Northeast 550 633 35,000  Level
Wed 10:20:51 AM 38.9000 -86.2167 54° Northeast 550 633 35,000  Level
Wed 10:21:51 AM 38.9833 -86.0667 49° Northeast 542 624 35,000  Level
Wed 10:22:51 AM 39.0833 -85.9167 52° Northeast 547 629 35,000  Level
Wed 10:23:51 AM 39.1833 -85.7500 54° Northeast 553 636 35,000  Level
Wed 10:24:51 AM 39.2667 -85.6000 49° Northeast 553 636 35,000  Level
Wed 10:25:51 AM 39.3667 -85.4500 49° Northeast 553 636 35,000  Level
Wed 10:26:51 AM 39.4667 -85.3000 49° Northeast 553 636 35,000  Level
Wed 10:27:51 AM 39.5667 -85.1500 45° Northeast 553 636 35,000  Level
Wed 10:28:51 AM 39.6833 -85.0000 49° Northeast 553 636 35,000  Level
Wed 10:29:51 AM 39.7833 -84.8500 54° Northeast 553 636 35,000  Level
Wed 10:30:51 AM 39.8667 -84.7000 49° Northeast 546 628 35,000  Level
Wed 10:31:51 AM 39.9667 -84.5500 52° Northeast 546 628 35,000  Level
Wed 10:32:51 AM 40.0667 -84.3833 49° Northeast 545 627 35,000  Level
Wed 10:33:51 AM 40.1667 -84.2333 49° Northeast 551 634 35,000  Level
Wed 10:34:51 AM 40.2667 -84.0833 49° Northeast 551 634 35,000  Level
Wed 10:35:41 AM 40.3667 -83.9333 90° East 550 633 35,000  Level
Wed 10:35:51 AM 40.3667 -83.9167 51° Northeast 556 640 35,000  Level
Wed 10:36:41 AM 40.4500 -83.7833 52° Northeast 556 640 35,000  Level
Wed 10:37:41 AM 40.5500 -83.6167 57° Northeast 550 633 35,000  Level
Wed 10:38:41 AM 40.6333 -83.4500 52° Northeast 557 641 35,000  Level
Wed 10:39:41 AM 40.7333 -83.2833 52° Northeast 563 648 35,000  Level
Wed 10:40:41 AM 40.8333 -83.1167 56° Northeast 568 654 35,000  Level
Wed 10:41:41 AM 40.9167 -82.9500 51° Northeast 563 648 35,000  Level
Wed 10:42:41 AM 41.0167 -82.7833 54° Northeast 563 648 35,000  Level
Wed 10:43:41 AM 41.1000 -82.6333 54° Northeast 557 641 35,000  Level
Wed 10:44:41 AM 41.2000 -82.4500 90° East 562 647 35,000  Level
Wed 10:45:41 AM 41.2000 -82.2333 84° East 555 639 35,000  Level
Wed 10:46:41 AM 41.2167 -82.0167 84° East 571 657 35,000  Level
Wed 10:47:41 AM 41.2333 -81.8167 84° East 571 657 35,000  Level
Wed 10:48:41 AM 41.2500 -81.6000 84° East 571 657 35,000  Level
Wed 10:49:41 AM 41.2667 -81.4000 84° East 566 651 35,000  Level
Wed 10:50:41 AM 41.2833 -81.2000 84° East 559 643 35,000  Level
Wed 10:51:41 AM 41.3000 -80.9833 84° East 559 643 35,000  Level
Wed 10:52:41 AM 41.3167 -80.7833 84° East 559 643 35,000  Level
Wed 10:53:41 AM 41.3333 -80.5833 84° East 559 643 35,000  Level
Wed 10:54:41 AM 41.3500 -80.3833 84° East 559 643 35,000  Level
Wed 10:55:41 AM 41.3667 -80.1833 84° East 554 638 35,000  Level
Wed 10:56:41 AM 41.3833 -79.9667 84° East 554 638 35,000  Level
Wed 10:57:41 AM 41.4000 -79.7667 90° East 554 638 35,000  Level
Wed 10:58:41 AM 41.4000 -79.5833 84° East 549 632 35,000  Level
Wed 10:59:41 AM 41.4167 -79.3833 84° East 538 619 35,000  Level
Wed 11:00:41 AM 41.4333 -79.1833 84° East 538 619 35,000  Level
Wed 11:01:41 AM 41.4500 -78.9833 90° East 538 619 35,000  Level
Wed 11:02:41 AM 41.4500 -78.7833 80° East 538 619 35,000  Level
Wed 11:03:22 AM 41.4667 -78.6500 84° East 532 612 35,000  Level
Wed 11:04:22 AM 41.4833 -78.4500 84° East 537 618 35,000  Level
Wed 11:05:22 AM 41.5000 -78.2500 90° East 537 618 35,000  Level
Wed 11:06:22 AM 41.5000 -78.0333 90° East 542 624 35,000  Level
Wed 11:07:23 AM 41.5000 -77.8333 104° East 542 624 35,000  Level
Wed 11:08:23 AM 41.4667 -77.6500 102° East 537 618 35,000 -250 Level
Wed 11:09:23 AM 41.4333 -77.4500 96° East 532 612 34,500 -744 Descending
Wed 11:10:24 AM 41.4167 -77.2500 104° East 532 612 33,500 248 Descending
Wed 11:11:24 AM 41.3833 -77.0667 102° East 532 612 35,000 750 Climbing
Wed 11:12:24 AM 41.3500 -76.8667 104° East 532 612 35,000 -2,821 Level
Wed 11:13:21 AM 41.3167 -76.6833 108° East 532 612 29,500 -5,136 Descending
Wed 11:14:22 AM 41.2667 -76.4833 112° Southeast 532 612 24,900 -4,661 Descending
Wed 11:15:22 AM 41.2167 -76.3167 108° East 532 612 20,100 5,050 Descending
Wed 11:16:22 AM 41.1667 -76.1167 112° Southeast 537 618 35,000 -1,600 Climbing
Wed 11:17:22 AM 41.1167 -75.9500 114° Southeast 511 588 16,900 -9,900 Descending
Wed 11:18:22 AM 41.0667 -75.8000 106° East 484 557 15,200 -1,587 Descending
Wed 11:19:23 AM 41.0333 -75.6500 106° East 463 533 13,700 9,818 Descending
Wed 11:20:23 AM 41.0000 -75.5000 116° Southeast 433 498 35,000 -900 Climbing
Wed 11:21:23 AM 40.9500 -75.3667 108° East 416 479 11,900 -12,350 Descending
Wed 11:22:23 AM 40.9167 -75.2333 108° East 397 457 10,300 -1,074 Descending
Wed 11:22:58 AM 40.9000 -75.1667 114° Southeast 344 396 10,200 -200 Descending
Wed 11:23:23 AM 40.8833 -75.1167 108° East 375 432 10,100 -2,164 Descending
Wed 11:23:59 AM 40.8667 -75.0500 124° Southeast 309 356 8,000 -2,557 Descending
Wed 11:24:24 AM 40.8500 -75.0167 108° East 334 384 7,500 -1,000 Descending
Wed 11:24:59 AM 40.8333 -74.9500 114° Southeast 327 376 7,000 27,500 Descending
Wed 11:25:24 AM 40.8167 -74.9000 72° East 319 367 35,000 100 Climbing
Wed 11:25:59 AM 40.8333 -74.8333 90° East 326 375 7,100  Descending
Wed 11:26:24 AM 40.8333 -74.7833 72° East 304 350 35,000 -800 Climbing
Wed 11:26:59 AM 40.8500 -74.7167 90° East 332 382 6,300 -30,526 Descending
Wed 11:27:21 AM 40.8500 -74.6667 72° East 309 356 6,000 -885 Descending
Wed 11:28:00 AM 40.8667 -74.6000 90° East 319 367 5,400 -900 Descending
Wed 11:28:21 AM 40.8667 -74.5500 78° East 314 361 5,100 -250 Descending
Wed 11:29:12 AM 40.8833 -74.4500 90° East 306 352 5,100 -197 Level
Wed 11:29:22 AM 40.8833 -74.4333 90° East 319 367 4,900 -111 Descending
Wed 11:30:06 AM 40.8833 -74.3500 90° East 301 346 5,000  Climbing
Wed 11:30:22 AM 40.8833 -74.3333 75° East 305 351 4,900 -98 Descending
Wed 11:31:07 AM 40.9000 -74.2500 90° East 298 343 4,900 -200 Level
Wed 11:31:22 AM 40.9000 -74.2167 105° East 298 343 4,700 -1,000 Descending
Wed 11:32:13 AM 40.8833 -74.1333 37° Northeast 301 346 3,800 -900 Descending
Wed 11:32:22 AM 40.9000 -74.1167 159° South 289 333 3,800 -889 Level
Wed 11:33:07 AM 40.8333 -74.0833 90° East 248 285 3,000 -885 Descending
Wed 11:33:23 AM 40.8333 -74.0667 207° Southwest 248 285 2,900 -1,082 Descending
Wed 11:34:08 AM 40.7833 -74.1000 143° Southeast 156 180 1,900 -900 Descending
Wed 11:34:23 AM 40.7667 -74.0833 237° Southwest 178 205 2,000 -364 Climbing
Wed 11:35:14 AM 40.7500 -74.1167 143° Southeast 182 209 1,500 -378 Descending
Wed 11:36:14 AM 40.7000 -74.0667 270° West 170 196 1,300 -450 Descending
Wed 11:37:14 AM 40.7000 -74.1167 270° West 114 131 600 -700 Descending

Login

Don't have an account? Register now (free) for customized features, flight alerts, and more!